createdAt,value
2022-08-17T00:01:37.885Z,25.60
2022-08-17T00:04:20.683Z,25.50
2022-08-17T00:06:49.332Z,25.50
2022-08-17T00:09:18.258Z,25.40
2022-08-17T00:12:34.923Z,25.30
2022-08-17T00:14:36.101Z,25.40
2022-08-17T00:17:04.730Z,25.30
2022-08-17T00:19:32.949Z,25.30
2022-08-17T00:22:32.892Z,25.70
2022-08-17T00:24:50.224Z,25.30
2022-08-17T00:27:17.554Z,25.20
2022-08-17T00:29:45.881Z,25.30
2022-08-17T00:33:13.959Z,25.30
2022-08-17T00:35:08.300Z,25.20
2022-08-17T00:37:35.313Z,25.20
2022-08-17T00:40:03.070Z,25.20
2022-08-17T00:42:31.255Z,25.10
2022-08-17T00:44:59.976Z,25.20
2022-08-17T00:47:26.957Z,25.20
2022-08-17T00:49:54.117Z,25.10
2022-08-17T00:52:25.039Z,25.10
2022-08-17T00:54:55.147Z,25.10
2022-08-17T00:57:29.981Z,25.10
2022-08-17T01:00:09.613Z,25.10
2022-08-17T01:02:42.044Z,25.10
2022-08-17T01:05:19.560Z,25.10
2022-08-17T01:07:50.842Z,25.10
2022-08-17T01:10:57.405Z,25.00
2022-08-17T01:13:11.227Z,25.00
2022-08-17T01:15:41.408Z,25.00
2022-08-17T01:18:14.741Z,25.00
2022-08-17T01:20:48.423Z,25.00
2022-08-17T01:23:20.509Z,25.00
2022-08-17T01:25:54.364Z,25.00
2022-08-17T01:28:53.073Z,24.90
2022-08-17T01:31:12.508Z,24.90
2022-08-17T01:33:39.566Z,24.80
2022-08-17T01:36:08.291Z,24.80
2022-08-17T01:38:37.311Z,24.80
2022-08-17T01:41:10.620Z,24.80
2022-08-17T01:43:47.426Z,24.70
2022-08-17T01:46:24.227Z,24.70
2022-08-17T01:48:51.525Z,24.70
2022-08-17T01:51:19.162Z,24.70
2022-08-17T01:53:57.441Z,24.60
2022-08-17T01:56:25.693Z,24.60
2022-08-17T01:58:52.961Z,24.60
2022-08-17T02:01:23.090Z,24.60
2022-08-17T02:03:53.327Z,24.60
2022-08-17T02:06:30.278Z,24.50
2022-08-17T02:09:02.435Z,24.50
2022-08-17T02:14:33.408Z,24.50
2022-08-17T02:17:00.525Z,24.50
2022-08-17T02:19:27.408Z,24.40
2022-08-17T02:21:54.707Z,24.40
2022-08-17T02:24:59.568Z,24.40
2022-08-17T02:27:16.406Z,24.40
2022-08-17T02:29:43.304Z,24.30
2022-08-17T02:32:20.987Z,24.40
2022-08-17T02:34:56.708Z,24.40
2022-08-17T02:37:24.265Z,24.30
2022-08-17T02:39:51.307Z,24.30
2022-08-17T02:42:18.477Z,24.30
2022-08-17T02:44:45.542Z,24.30
2022-08-17T02:47:12.751Z,24.20
2022-08-17T02:49:39.713Z,24.20
2022-08-17T02:52:07.829Z,24.20
2022-08-17T02:54:39.974Z,24.10
2022-08-17T02:57:10.127Z,24.10
2022-08-17T02:59:46.788Z,24.00
2022-08-17T03:02:16.032Z,24.00
2022-08-17T03:04:42.912Z,24.00
2022-08-17T03:07:09.976Z,24.00
2022-08-17T03:09:36.842Z,23.90
2022-08-17T03:12:09.066Z,23.90
2022-08-17T03:14:41.910Z,23.90
2022-08-17T03:17:10.240Z,23.90
2022-08-17T03:19:41.575Z,23.90
2022-08-17T03:22:37.160Z,23.80
2022-08-17T03:24:58.214Z,23.80
2022-08-17T03:27:25.205Z,23.80
2022-08-17T03:29:52.253Z,23.90
2022-08-17T03:32:20.692Z,23.80
2022-08-17T03:34:48.008Z,23.80
2022-08-17T03:37:15.065Z,23.70
2022-08-17T03:39:42.825Z,23.70
2022-08-17T03:42:31.859Z,23.70
2022-08-17T03:45:00.688Z,23.70
2022-08-17T03:47:46.893Z,23.70
2022-08-17T03:50:33.736Z,23.60
2022-08-17T03:53:23.503Z,23.60
2022-08-17T03:56:09.514Z,23.60
2022-08-17T03:58:37.645Z,23.50
2022-08-17T04:01:07.865Z,23.50
2022-08-17T04:03:35.272Z,23.50
2022-08-17T04:06:02.329Z,23.40
2022-08-17T04:08:30.352Z,23.40
2022-08-17T04:10:57.857Z,23.50
2022-08-17T04:13:25.537Z,23.40
2022-08-17T04:15:52.792Z,23.40
2022-08-17T04:18:20.077Z,23.40
2022-08-17T04:20:47.110Z,23.40
2022-08-17T04:23:17.606Z,23.30
2022-08-17T04:25:49.347Z,23.30
2022-08-17T04:28:17.934Z,23.30
2022-08-17T04:30:46.773Z,23.30
2022-08-17T04:33:20.061Z,23.30
2022-08-17T04:35:53.968Z,23.30
2022-08-17T04:38:24.559Z,23.30
2022-08-17T04:41:11.007Z,23.20
2022-08-17T04:43:40.161Z,23.20
2022-08-17T04:46:09.751Z,23.30
2022-08-17T04:48:40.869Z,23.30
2022-08-17T04:51:13.507Z,23.30
2022-08-17T04:53:44.439Z,23.20
2022-08-17T04:56:17.017Z,23.20
2022-08-17T04:58:47.987Z,23.20
2022-08-17T05:01:23.215Z,23.30
2022-08-17T05:03:52.919Z,23.30
2022-08-17T05:06:20.412Z,23.30
2022-08-17T05:08:47.485Z,23.30
2022-08-17T05:11:15.128Z,23.30
2022-08-17T05:13:42.602Z,23.30
2022-08-17T05:16:09.751Z,23.40
2022-08-17T05:18:38.867Z,23.40
2022-08-17T05:21:06.765Z,23.40
2022-08-17T05:23:42.777Z,23.50
2022-08-17T05:26:24.758Z,23.60
2022-08-17T05:28:59.425Z,23.60
2022-08-17T05:31:27.842Z,23.70
2022-08-17T05:33:54.681Z,23.70
2022-08-17T05:36:42.823Z,23.70
2022-08-17T05:39:08.998Z,23.80
2022-08-17T05:41:42.745Z,23.80
2022-08-17T05:44:09.867Z,23.80
2022-08-17T05:46:41.665Z,23.90
2022-08-17T05:49:11.200Z,24.00
2022-08-17T05:51:55.968Z,24.00
2022-08-17T05:54:51.666Z,24.10
2022-08-17T05:57:21.341Z,24.10
2022-08-17T05:59:57.549Z,24.10
2022-08-17T06:02:29.427Z,24.20
2022-08-17T06:05:25.873Z,24.20
2022-08-17T06:08:25.479Z,24.20
2022-08-17T06:11:02.624Z,24.30
2022-08-17T06:13:35.248Z,24.40
2022-08-17T06:16:33.740Z,24.40
2022-08-17T06:19:16.020Z,24.40
2022-08-17T06:21:47.623Z,24.40
2022-08-17T06:24:27.483Z,24.40
2022-08-17T06:27:01.533Z,24.40
2022-08-17T06:29:53.304Z,24.50
2022-08-17T06:32:20.534Z,24.50
2022-08-17T06:34:47.861Z,24.50
2022-08-17T06:37:42.476Z,24.40
2022-08-17T06:40:18.547Z,24.50
2022-08-17T06:43:00.902Z,24.40
2022-08-17T06:45:41.783Z,24.50
2022-08-17T06:48:11.743Z,24.60
2022-08-17T06:50:50.991Z,24.60
2022-08-17T06:53:45.574Z,24.60
2022-08-17T06:56:21.795Z,24.60
2022-08-17T06:58:49.558Z,24.60
2022-08-17T07:01:23.023Z,24.70
2022-08-17T07:04:06.410Z,24.70
2022-08-17T07:06:49.169Z,24.80
2022-08-17T07:09:28.232Z,24.80
2022-08-17T07:12:18.493Z,24.80
2022-08-17T07:14:58.336Z,24.90
2022-08-17T07:17:46.692Z,24.90
2022-08-17T07:20:22.638Z,25.00
2022-08-17T07:23:21.868Z,25.10
2022-08-17T07:25:50.090Z,25.10
2022-08-17T07:28:22.938Z,25.20
2022-08-17T07:30:54.385Z,25.30
2022-08-17T07:33:25.735Z,25.30
2022-08-17T07:35:53.206Z,25.30
2022-08-17T07:38:32.149Z,25.40
2022-08-17T07:41:06.151Z,25.50
2022-08-17T07:43:42.349Z,25.60
2022-08-17T07:46:46.673Z,25.70
2022-08-17T07:49:13.574Z,25.70
2022-08-17T07:51:43.747Z,25.90
2022-08-17T07:54:18.469Z,25.90
2022-08-17T07:56:54.633Z,25.90
2022-08-17T07:59:33.413Z,26.10
2022-08-17T08:02:02.303Z,26.10
2022-08-17T08:07:30.368Z,26.30
2022-08-17T08:10:11.773Z,26.40
2022-08-17T08:12:52.754Z,26.50
2022-08-17T08:15:25.657Z,26.60
2022-08-17T08:17:55.687Z,26.60
2022-08-17T08:20:52.985Z,26.80
2022-08-17T08:23:49.552Z,26.80
2022-08-17T08:26:53.960Z,26.90
2022-08-17T08:29:28.120Z,27.00
2022-08-17T08:32:21.909Z,27.00
2022-08-17T08:35:04.456Z,27.10
2022-08-17T08:38:08.573Z,27.10
2022-08-17T08:40:46.349Z,27.20
2022-08-17T08:43:36.239Z,27.30
2022-08-17T08:46:19.614Z,27.30
2022-08-17T08:49:17.501Z,27.40
2022-08-17T08:51:57.825Z,27.40
2022-08-17T08:54:34.423Z,27.50
2022-08-17T08:57:26.725Z,27.60
2022-08-17T09:00:07.708Z,27.60
2022-08-17T09:02:40.805Z,27.70
2022-08-17T09:05:27.106Z,27.70
2022-08-17T09:08:16.400Z,27.80
2022-08-17T09:11:02.804Z,27.80
2022-08-17T09:14:05.507Z,27.90
2022-08-17T09:16:59.921Z,27.90
2022-08-17T09:19:48.708Z,28.00
2022-08-17T09:22:24.100Z,28.00
2022-08-17T09:25:07.126Z,28.00
2022-08-17T09:27:47.982Z,28.20
2022-08-17T09:30:15.417Z,28.20
2022-08-17T09:32:55.300Z,28.40
2022-08-17T09:35:32.911Z,28.40
2022-08-17T09:38:32.326Z,28.60
2022-08-17T09:41:13.148Z,28.60
2022-08-17T09:43:58.145Z,28.60
2022-08-17T09:46:38.788Z,28.80
2022-08-17T09:49:11.771Z,28.80
2022-08-17T09:51:44.971Z,28.90
2022-08-17T09:54:38.725Z,29.00
2022-08-17T09:57:29.077Z,28.70
2022-08-17T10:00:18.849Z,29.20
2022-08-17T10:03:21.105Z,29.30
2022-08-17T10:05:56.271Z,29.40
2022-08-17T10:08:44.948Z,29.60
2022-08-17T10:11:14.800Z,29.60
2022-08-17T10:14:36.063Z,29.70
2022-08-17T10:17:28.138Z,29.80
2022-08-17T10:20:41.776Z,29.90
2022-08-17T10:23:56.737Z,30.00
2022-08-17T10:26:26.223Z,30.00
2022-08-17T10:28:59.330Z,30.10
2022-08-17T10:31:35.106Z,30.20
2022-08-17T10:34:38.862Z,30.30
2022-08-17T10:37:28.686Z,30.40
2022-08-17T10:40:28.184Z,30.40
2022-08-17T10:43:04.935Z,30.40
2022-08-17T10:46:10.556Z,30.50
2022-08-17T10:49:25.892Z,30.50
2022-08-17T10:52:02.036Z,30.60
2022-08-17T10:54:45.633Z,30.70
2022-08-17T10:57:43.700Z,30.70
2022-08-17T11:00:36.018Z,30.80
2022-08-17T11:03:23.559Z,30.70
2022-08-17T11:06:26.166Z,30.80
2022-08-17T11:09:03.209Z,30.80
2022-08-17T11:11:59.963Z,30.90
2022-08-17T11:14:49.189Z,30.90
2022-08-17T11:17:43.920Z,31.00
2022-08-17T11:20:19.805Z,31.00
2022-08-17T11:23:10.116Z,31.00
2022-08-17T11:25:47.149Z,31.10
2022-08-17T11:28:18.039Z,31.10
2022-08-17T11:30:57.400Z,31.20
2022-08-17T11:33:36.716Z,31.30
2022-08-17T11:36:50.689Z,31.40
2022-08-17T11:39:42.179Z,31.50
2022-08-17T11:42:57.537Z,31.50
2022-08-17T11:45:33.792Z,31.60
2022-08-17T11:48:48.448Z,31.70
2022-08-17T11:51:33.723Z,31.70
2022-08-17T11:57:00.563Z,31.90
2022-08-17T11:59:33.251Z,31.90
2022-08-17T12:02:01.870Z,32.00
2022-08-17T12:04:32.148Z,32.00
2022-08-17T12:07:20.517Z,32.10
2022-08-17T12:09:50.865Z,32.20
2022-08-17T12:12:23.332Z,32.30
2022-08-17T12:15:11.800Z,32.40
2022-08-17T12:17:42.662Z,32.40
2022-08-17T12:20:42.624Z,32.50
2022-08-17T12:23:33.876Z,32.60
2022-08-17T12:26:24.049Z,32.70
2022-08-17T12:28:57.436Z,32.70
2022-08-17T12:31:34.374Z,32.80
2022-08-17T12:34:03.322Z,32.80
2022-08-17T12:36:32.380Z,32.40
2022-08-17T12:39:13.682Z,32.80
2022-08-17T12:41:46.851Z,32.90
2022-08-17T12:44:18.518Z,33.00
2022-08-17T12:47:07.551Z,33.20
2022-08-17T12:49:35.844Z,33.30
2022-08-17T12:52:02.699Z,33.30
2022-08-17T12:55:00.288Z,33.40
2022-08-17T12:57:27.404Z,33.40
2022-08-17T13:00:07.604Z,33.50
2022-08-17T13:02:48.714Z,33.60
2022-08-17T13:05:23.758Z,33.70
2022-08-17T13:07:53.119Z,33.80
2022-08-17T13:10:22.728Z,33.90
2022-08-17T13:12:51.085Z,33.90
2022-08-17T13:15:25.320Z,33.90
2022-08-17T13:17:58.225Z,34.00
2022-08-17T13:20:25.690Z,34.00
2022-08-17T13:22:55.998Z,34.00
2022-08-17T13:25:24.053Z,34.10
2022-08-17T13:27:53.135Z,34.10
2022-08-17T13:30:23.792Z,34.20
2022-08-17T13:32:50.858Z,34.10
2022-08-17T13:35:39.548Z,34.10
2022-08-17T13:38:11.872Z,34.10
2022-08-17T13:40:41.731Z,34.10
2022-08-17T13:43:10.325Z,34.10
2022-08-17T13:45:45.524Z,34.20
2022-08-17T13:48:27.712Z,34.30
2022-08-17T13:50:54.604Z,34.30
2022-08-17T13:53:36.138Z,34.40
2022-08-17T13:56:38.579Z,34.30
2022-08-17T13:59:11.185Z,34.30
2022-08-17T14:01:53.349Z,34.20
2022-08-17T14:04:32.678Z,34.20
2022-08-17T14:07:08.933Z,34.40
2022-08-17T14:09:39.901Z,34.50
2022-08-17T14:12:20.103Z,34.50
2022-08-17T14:14:47.479Z,34.50
2022-08-17T14:17:14.510Z,34.60
2022-08-17T14:19:41.746Z,34.60
2022-08-17T14:22:18.829Z,34.80
2022-08-17T14:25:01.070Z,34.80
2022-08-17T14:27:31.754Z,34.70
2022-08-17T14:29:59.085Z,34.80
2022-08-17T14:32:29.188Z,34.80
2022-08-17T14:34:57.707Z,34.80
2022-08-17T14:37:28.014Z,34.90
2022-08-17T14:39:56.965Z,34.90
2022-08-17T14:42:26.324Z,34.90
2022-08-17T14:44:54.733Z,34.90
2022-08-17T14:47:21.789Z,34.90
2022-08-17T14:49:49.289Z,34.90
2022-08-17T14:52:21.724Z,35.00
2022-08-17T14:54:54.003Z,35.10
2022-08-17T14:57:33.587Z,35.10
2022-08-17T15:00:02.323Z,35.10
2022-08-17T15:02:30.848Z,35.20
2022-08-17T15:05:05.980Z,35.30
2022-08-17T15:07:33.221Z,35.40
2022-08-17T15:10:02.442Z,35.40
2022-08-17T15:12:33.545Z,35.50
2022-08-17T15:15:04.450Z,35.70
2022-08-17T15:17:44.412Z,35.80
2022-08-17T15:20:15.817Z,35.90
2022-08-17T15:22:44.973Z,36.00
2022-08-17T15:25:12.558Z,36.10
2022-08-17T15:27:40.379Z,36.20
2022-08-17T15:30:09.840Z,36.20
2022-08-17T15:32:39.257Z,36.30
2022-08-17T15:35:12.224Z,36.40
2022-08-17T15:37:40.267Z,36.50
2022-08-17T15:40:09.087Z,36.60
2022-08-17T15:42:37.330Z,36.60
2022-08-17T15:45:10.736Z,36.50
2022-08-17T15:47:40.877Z,36.50
2022-08-17T15:50:09.648Z,36.50
2022-08-17T15:52:41.975Z,36.60
2022-08-17T15:55:14.665Z,36.60
2022-08-17T15:57:41.702Z,36.60
2022-08-17T16:00:10.143Z,36.50
2022-08-17T16:03:44.795Z,36.50
2022-08-17T16:05:30.138Z,36.40
2022-08-17T16:07:59.673Z,36.20
2022-08-17T16:10:34.831Z,36.20
2022-08-17T16:13:04.280Z,36.20
2022-08-17T16:15:32.115Z,36.20
2022-08-17T16:17:59.536Z,36.30
2022-08-17T16:20:26.961Z,36.20
2022-08-17T16:22:55.065Z,36.20
2022-08-17T16:25:52.392Z,36.30
2022-08-17T16:28:21.856Z,36.10
2022-08-17T16:30:49.055Z,36.10
2022-08-17T16:33:17.005Z,36.00
2022-08-17T16:36:14.116Z,36.00
2022-08-17T16:38:53.389Z,35.90
2022-08-17T16:41:56.392Z,35.90
2022-08-17T16:44:54.899Z,35.60
2022-08-17T16:47:26.554Z,35.70
2022-08-17T16:50:03.637Z,35.60
2022-08-17T16:52:36.598Z,35.50
2022-08-17T16:55:13.128Z,35.50
2022-08-17T16:57:51.209Z,35.50
2022-08-17T17:00:20.943Z,35.40
2022-08-17T17:02:53.818Z,35.40
2022-08-17T17:05:42.466Z,35.40
2022-08-17T17:08:44.861Z,35.30
2022-08-17T17:11:33.640Z,35.20
2022-08-17T17:14:09.204Z,35.00
2022-08-17T17:16:48.747Z,34.80
2022-08-17T17:19:37.233Z,34.60
2022-08-17T17:22:22.809Z,34.40
2022-08-17T17:25:09.476Z,34.20
2022-08-17T17:27:58.903Z,34.00
2022-08-17T17:30:54.005Z,33.80
2022-08-17T17:33:48.848Z,33.60
2022-08-17T17:36:41.023Z,33.40
2022-08-17T17:39:31.876Z,33.20
2022-08-17T17:42:02.773Z,33.10
2022-08-17T17:44:38.168Z,33.00
2022-08-17T17:47:05.876Z,32.90
2022-08-17T17:49:41.572Z,32.70
2022-08-17T17:52:38.640Z,32.60
2022-08-17T17:55:37.548Z,32.50
2022-08-17T17:58:32.077Z,32.40
2022-08-17T18:01:18.057Z,32.30
2022-08-17T18:03:45.289Z,32.30
2022-08-17T18:06:34.418Z,32.10
2022-08-17T18:09:08.757Z,32.00
2022-08-17T18:11:41.394Z,31.90
2022-08-17T18:14:56.084Z,31.80
2022-08-17T18:17:23.661Z,31.80
2022-08-17T18:19:50.554Z,31.70
2022-08-17T18:22:22.456Z,31.60
2022-08-17T18:24:57.349Z,31.50
2022-08-17T18:27:38.089Z,31.50
2022-08-17T18:30:14.072Z,31.80
2022-08-17T18:32:43.723Z,31.40
2022-08-17T18:35:10.630Z,31.40
2022-08-17T18:37:42.726Z,31.30
2022-08-17T18:40:20.070Z,31.20
2022-08-17T18:42:56.620Z,31.20
2022-08-17T18:45:35.825Z,31.10
2022-08-17T18:48:16.782Z,31.10
2022-08-17T18:50:46.142Z,31.00
2022-08-17T18:53:34.088Z,30.90
2022-08-17T18:59:21.153Z,30.80
2022-08-17T19:09:49.464Z,30.70
2022-08-17T19:12:53.542Z,30.50
2022-08-17T19:15:39.520Z,30.50
2022-08-17T19:18:58.225Z,30.50
2022-08-17T19:21:36.897Z,30.50
2022-08-17T19:24:31.939Z,30.50
2022-08-17T19:27:15.570Z,30.30
2022-08-17T19:29:53.808Z,30.30
2022-08-17T19:32:24.954Z,30.20
2022-08-17T19:34:52.327Z,30.20
2022-08-17T19:38:02.787Z,30.10
2022-08-17T19:40:53.228Z,30.20
2022-08-17T19:43:39.863Z,30.10
2022-08-17T19:46:19.214Z,30.10
2022-08-17T19:48:52.200Z,30.00
2022-08-17T19:51:36.146Z,30.00
2022-08-17T19:54:18.404Z,29.90
2022-08-17T19:57:14.501Z,29.90
2022-08-17T20:00:22.023Z,29.80
2022-08-17T20:03:06.682Z,29.80
2022-08-17T20:06:12.131Z,29.80
2022-08-17T20:08:52.116Z,29.70
2022-08-17T20:11:26.274Z,29.70
2022-08-17T20:14:13.056Z,29.60
2022-08-17T20:16:40.468Z,29.70
2022-08-17T20:19:10.423Z,29.60
2022-08-17T20:21:58.197Z,29.60
2022-08-17T20:24:48.442Z,29.60
2022-08-17T20:27:21.593Z,29.60
2022-08-17T20:30:06.048Z,29.50
2022-08-17T20:32:55.963Z,29.50
2022-08-17T20:35:38.124Z,29.60
2022-08-17T20:38:33.719Z,29.40
2022-08-17T20:41:01.409Z,29.40
2022-08-17T20:43:59.024Z,29.40
2022-08-17T20:46:56.790Z,29.40
2022-08-17T20:49:33.916Z,29.30
2022-08-17T20:52:13.661Z,29.30
2022-08-17T20:54:48.292Z,29.30
2022-08-17T20:57:36.496Z,29.20
2022-08-17T21:00:33.248Z,29.20
2022-08-17T21:03:22.020Z,29.20
2022-08-17T21:06:02.994Z,29.20
2022-08-17T21:09:16.632Z,29.20
2022-08-17T21:12:03.876Z,29.20
2022-08-17T21:14:39.102Z,29.20
2022-08-17T21:17:24.912Z,29.20
2022-08-17T21:20:25.574Z,29.20
2022-08-17T21:22:59.047Z,29.10
2022-08-17T21:26:09.592Z,29.20
2022-08-17T21:29:32.420Z,29.20
2022-08-17T21:32:03.632Z,29.20
2022-08-17T21:34:33.021Z,29.20
2022-08-17T21:37:18.815Z,29.20
2022-08-17T21:40:23.095Z,29.10
2022-08-17T21:42:55.101Z,29.20
2022-08-17T21:45:38.059Z,29.10
2022-08-17T21:48:13.936Z,29.10
2022-08-17T21:50:43.841Z,29.00
2022-08-17T21:53:43.577Z,28.90
2022-08-17T21:56:19.511Z,28.90
2022-08-17T21:58:54.549Z,28.80
2022-08-17T22:01:30.629Z,28.80
2022-08-17T22:04:16.820Z,28.70
2022-08-17T22:06:55.830Z,28.70
2022-08-17T22:09:32.975Z,28.60
2022-08-17T22:12:02.439Z,28.70
2022-08-17T22:14:52.913Z,28.70
2022-08-17T22:18:10.574Z,28.70
2022-08-17T22:20:42.022Z,28.50
2022-08-17T22:23:32.390Z,28.60
2022-08-17T22:26:09.704Z,28.60
2022-08-17T22:28:59.382Z,28.60
2022-08-17T22:31:30.004Z,28.60
2022-08-17T22:33:59.952Z,28.60
2022-08-17T22:36:38.807Z,28.60
2022-08-17T22:39:09.158Z,28.60
2022-08-17T22:41:49.406Z,28.50
2022-08-17T22:44:19.761Z,28.60
2022-08-17T22:47:14.537Z,28.50
2022-08-17T22:49:57.811Z,28.50
2022-08-17T22:53:00.675Z,28.50
2022-08-17T22:55:50.223Z,28.40
2022-08-17T22:58:40.553Z,28.40
2022-08-17T23:01:39.192Z,28.40
2022-08-17T23:04:30.974Z,28.30
2022-08-17T23:06:57.932Z,28.30
2022-08-17T23:09:24.807Z,28.20
2022-08-17T23:11:58.680Z,28.20
2022-08-17T23:14:31.642Z,28.20
2022-08-17T23:16:59.525Z,28.40
2022-08-17T23:19:28.056Z,28.10
2022-08-17T23:21:56.657Z,28.10
2022-08-17T23:24:27.264Z,28.10
2022-08-17T23:26:57.352Z,28.00
2022-08-17T23:29:26.533Z,28.00
2022-08-17T23:31:53.672Z,28.10
2022-08-17T23:34:20.962Z,28.00
2022-08-17T23:36:52.940Z,28.00
2022-08-17T23:39:27.767Z,28.00
2022-08-17T23:42:00.445Z,27.90
2022-08-17T23:44:28.840Z,28.00
2022-08-17T23:46:56.044Z,27.90
2022-08-17T23:49:25.238Z,27.90
2022-08-17T23:51:54.727Z,27.90
2022-08-17T23:54:48.681Z,27.90
2022-08-17T23:57:19.793Z,27.90
